sensor_id;sensor_type;location;lat;lon;timestamp;temperature;humidity
19728;DHT22;10015;52.530;13.390;2022-07-15T04:15:46;16.70;99.90
19728;DHT22;10015;52.530;13.390;2022-07-15T04:18:12;16.70;99.90
19728;DHT22;10015;52.530;13.390;2022-07-15T04:20:39;16.80;99.90
19728;DHT22;10015;52.530;13.390;2022-07-15T04:23:05;16.90;99.90
19728;DHT22;10015;52.530;13.390;2022-07-15T04:25:31;17.00;99.90
19728;DHT22;10015;52.530;13.390;2022-07-15T04:27:57;17.10;99.90
19728;DHT22;10015;52.530;13.390;2022-07-15T04:30:29;17.10;99.90
19728;DHT22;10015;52.530;13.390;2022-07-15T04:32:54;17.20;99.90
19728;DHT22;10015;52.530;13.390;2022-07-15T04:35:24;17.10;99.90
19728;DHT22;10015;52.530;13.390;2022-07-15T04:37:57;17.10;99.90
19728;DHT22;10015;52.530;13.390;2022-07-15T04:40:23;17.30;99.90
19728;DHT22;10015;52.530;13.390;2022-07-15T04:42:50;17.20;99.90
19728;DHT22;10015;52.530;13.390;2022-07-15T04:45:17;17.30;99.90
19728;DHT22;10015;52.530;13.390;2022-07-15T04:47:43;17.30;99.90
19728;DHT22;10015;52.530;13.390;2022-07-15T04:50:13;17.30;99.90
19728;DHT22;10015;52.530;13.390;2022-07-15T04:52:59;17.30;99.90
19728;DHT22;10015;52.530;13.390;2022-07-15T04:55:25;17.40;99.90
19728;DHT22;10015;52.530;13.390;2022-07-15T04:58:00;17.30;99.90
19728;DHT22;10015;52.530;13.390;2022-07-15T05:00:27;17.20;99.90
19728;DHT22;10015;52.530;13.390;2022-07-15T05:02:53;17.20;99.90
19728;DHT22;10015;52.530;13.390;2022-07-15T05:05:19;17.30;99.90
19728;DHT22;10015;52.530;13.390;2022-07-15T05:07:45;17.30;99.90
19728;DHT22;10015;52.530;13.390;2022-07-15T05:10:12;17.30;99.90
19728;DHT22;10015;52.530;13.390;2022-07-15T05:12:44;17.40;99.90
19728;DHT22;10015;52.530;13.390;2022-07-15T05:15:10;17.50;99.90
19728;DHT22;10015;52.530;13.390;2022-07-15T05:17:40;17.50;99.90
19728;DHT22;10015;52.530;13.390;2022-07-15T05:20:11;17.40;99.90
19728;DHT22;10015;52.530;13.390;2022-07-15T05:22:37;17.50;99.90
19728;DHT22;10015;52.530;13.390;2022-07-15T05:25:03;17.40;99.90
19728;DHT22;10015;52.530;13.390;2022-07-15T05:27:30;17.40;99.90
19728;DHT22;10015;52.530;13.390;2022-07-15T05:29:56;17.40;99.90
19728;DHT22;10015;52.530;13.390;2022-07-15T05:32:22;17.60;99.90
19728;DHT22;10015;52.530;13.390;2022-07-15T05:34:48;17.70;99.90
19728;DHT22;10015;52.530;13.390;2022-07-15T05:37:17;17.80;99.90
19728;DHT22;10015;52.530;13.390;2022-07-15T05:39:43;18.00;99.90
19728;DHT22;10015;52.530;13.390;2022-07-15T05:42:31;18.00;99.90
19728;DHT22;10015;52.530;13.390;2022-07-15T05:44:57;18.00;99.90
19728;DHT22;10015;52.530;13.390;2022-07-15T05:47:23;18.00;99.90
19728;DHT22;10015;52.530;13.390;2022-07-15T05:49:49;18.00;99.90
19728;DHT22;10015;52.530;13.390;2022-07-15T05:52:15;18.20;99.90
19728;DHT22;10015;52.530;13.390;2022-07-15T05:54:41;18.40;99.90
19728;DHT22;10015;52.530;13.390;2022-07-15T05:57:09;18.40;99.90
19728;DHT22;10015;52.530;13.390;2022-07-15T05:59:35;18.60;99.90
19728;DHT22;10015;52.530;13.390;2022-07-15T06:02:01;18.80;99.90
19728;DHT22;10015;52.530;13.390;2022-07-15T06:04:27;18.90;99.90
19728;DHT22;10015;52.530;13.390;2022-07-15T06:06:54;18.80;99.90
19728;DHT22;10015;52.530;13.390;2022-07-15T06:09:21;18.80;99.90
19728;DHT22;10015;52.530;13.390;2022-07-15T06:11:47;18.90;99.90
19728;DHT22;10015;52.530;13.390;2022-07-15T06:14:15;18.90;99.90
19728;DHT22;10015;52.530;13.390;2022-07-15T06:16:40;18.80;99.90
19728;DHT22;10015;52.530;13.390;2022-07-15T06:19:09;18.60;99.90
19728;DHT22;10015;52.530;13.390;2022-07-15T06:21:36;18.60;99.90
19728;DHT22;10015;52.530;13.390;2022-07-15T06:24:03;18.50;99.90
19728;DHT22;10015;52.530;13.390;2022-07-15T06:26:29;18.60;99.90
19728;DHT22;10015;52.530;13.390;2022-07-15T06:28:55;18.50;99.90
19728;DHT22;10015;52.530;13.390;2022-07-15T06:31:21;18.50;99.90
19728;DHT22;10015;52.530;13.390;2022-07-15T06:33:47;18.50;99.90
19728;DHT22;10015;52.530;13.390;2022-07-15T06:36:13;19.10;99.90
19728;DHT22;10015;52.530;13.390;2022-07-15T06:38:41;19.40;99.90
19728;DHT22;10015;52.530;13.390;2022-07-15T06:41:07;19.90;99.90
19728;DHT22;10015;52.530;13.390;2022-07-15T06:43:34;20.20;99.90
19728;DHT22;10015;52.530;13.390;2022-07-15T06:46:11;20.40;99.90
19728;DHT22;10015;52.530;13.390;2022-07-15T06:48:40;20.60;99.90
19728;DHT22;10015;52.530;13.390;2022-07-15T06:51:10;20.70;99.90
19728;DHT22;10015;52.530;13.390;2022-07-15T06:53:38;20.80;99.90
19728;DHT22;10015;52.530;13.390;2022-07-15T06:56:04;20.80;99.90
19728;DHT22;10015;52.530;13.390;2022-07-15T06:58:30;20.90;99.90
19728;DHT22;10015;52.530;13.390;2022-07-15T07:00:56;21.00;99.90
19728;DHT22;10015;52.530;13.390;2022-07-15T07:03:27;21.10;99.90
19728;DHT22;10015;52.530;13.390;2022-07-15T07:06:34;21.30;99.90
19728;DHT22;10015;52.530;13.390;2022-07-15T07:09:03;21.30;99.90
19728;DHT22;10015;52.530;13.390;2022-07-15T07:11:29;21.40;99.90
19728;DHT22;10015;52.530;13.390;2022-07-15T07:13:55;21.50;99.90
19728;DHT22;10015;52.530;13.390;2022-07-15T07:16:21;21.50;99.90
19728;DHT22;10015;52.530;13.390;2022-07-15T07:18:47;21.60;99.90
19728;DHT22;10015;52.530;13.390;2022-07-15T07:21:18;21.80;99.90
19728;DHT22;10015;52.530;13.390;2022-07-15T07:23:44;21.90;99.90
19728;DHT22;10015;52.530;13.390;2022-07-15T07:26:10;21.90;99.90
19728;DHT22;10015;52.530;13.390;2022-07-15T07:28:38;21.80;99.90
19728;DHT22;10015;52.530;13.390;2022-07-15T07:31:08;21.90;99.90
19728;DHT22;10015;52.530;13.390;2022-07-15T07:33:35;22.00;99.90
19728;DHT22;10015;52.530;13.390;2022-07-15T07:36:02;21.90;99.90
19728;DHT22;10015;52.530;13.390;2022-07-15T07:38:29;21.90;99.90
19728;DHT22;10015;52.530;13.390;2022-07-15T07:40:55;21.80;99.90
19728;DHT22;10015;52.530;13.390;2022-07-15T07:43:21;21.80;99.90
19728;DHT22;10015;52.530;13.390;2022-07-15T07:45:47;21.90;99.90
19728;DHT22;10015;52.530;13.390;2022-07-15T07:48:13;22.00;99.90
19728;DHT22;10015;52.530;13.390;2022-07-15T07:50:40;22.20;99.90
19728;DHT22;10015;52.530;13.390;2022-07-15T07:53:07;22.30;99.90
19728;DHT22;10015;52.530;13.390;2022-07-15T07:55:33;21.90;99.90
19728;DHT22;10015;52.530;13.390;2022-07-15T07:57:59;21.60;99.90
19728;DHT22;10015;52.530;13.390;2022-07-15T08:00:26;21.50;99.90
19728;DHT22;10015;52.530;13.390;2022-07-15T08:02:53;21.50;99.90
19728;DHT22;10015;52.530;13.390;2022-07-15T08:05:20;21.30;99.90
19728;DHT22;10015;52.530;13.390;2022-07-15T08:07:46;21.20;99.90
19728;DHT22;10015;52.530;13.390;2022-07-15T08:10:14;21.30;99.90
19728;DHT22;10015;52.530;13.390;2022-07-15T08:12:40;21.50;99.90
19728;DHT22;10015;52.530;13.390;2022-07-15T08:15:10;21.50;99.90
19728;DHT22;10015;52.530;13.390;2022-07-15T08:17:37;21.60;99.90
19728;DHT22;10015;52.530;13.390;2022-07-15T08:20:06;21.60;99.90
19728;DHT22;10015;52.530;13.390;2022-07-15T08:22:34;21.70;99.90
19728;DHT22;10015;52.530;13.390;2022-07-15T08:25:01;21.70;99.40
19728;DHT22;10015;52.530;13.390;2022-07-15T08:27:26;21.50;99.70
19728;DHT22;10015;52.530;13.390;2022-07-15T08:29:52;21.30;99.60
19728;DHT22;10015;52.530;13.390;2022-07-15T08:32:19;21.10;99.80
19728;DHT22;10015;52.530;13.390;2022-07-15T08:34:45;21.10;99.90
19728;DHT22;10015;52.530;13.390;2022-07-15T08:37:13;21.00;99.40
19728;DHT22;10015;52.530;13.390;2022-07-15T08:39:39;21.00;99.90
19728;DHT22;10015;52.530;13.390;2022-07-15T08:42:06;21.30;99.50
19728;DHT22;10015;52.530;13.390;2022-07-15T08:44:32;21.50;99.90
19728;DHT22;10015;52.530;13.390;2022-07-15T08:47:03;21.40;98.30
19728;DHT22;10015;52.530;13.390;2022-07-15T08:49:31;21.50;98.90
19728;DHT22;10015;52.530;13.390;2022-07-15T08:51:59;21.30;98.30
19728;DHT22;10015;52.530;13.390;2022-07-15T08:54:26;21.20;99.90
19728;DHT22;10015;52.530;13.390;2022-07-15T08:56:52;21.20;98.90
19728;DHT22;10015;52.530;13.390;2022-07-15T08:59:18;21.20;99.40
19728;DHT22;10015;52.530;13.390;2022-07-15T09:01:46;21.30;99.20
19728;DHT22;10015;52.530;13.390;2022-07-15T09:04:13;21.30;98.50
19728;DHT22;10015;52.530;13.390;2022-07-15T09:09:35;21.30;98.00
19728;DHT22;10015;52.530;13.390;2022-07-15T09:12:06;21.10;97.90
19728;DHT22;10015;52.530;13.390;2022-07-15T09:14:34;20.80;98.00
19728;DHT22;10015;52.530;13.390;2022-07-15T09:20:08;20.80;99.10
19728;DHT22;10015;52.530;13.390;2022-07-15T09:22:53;20.70;98.80
19728;DHT22;10015;52.530;13.390;2022-07-15T09:25:21;20.80;99.50
19728;DHT22;10015;52.530;13.390;2022-07-15T09:27:48;20.80;99.30
19728;DHT22;10015;52.530;13.390;2022-07-15T09:33:08;20.90;99.10
19728;DHT22;10015;52.530;13.390;2022-07-15T09:41:25;20.60;97.80
19728;DHT22;10015;52.530;13.390;2022-07-15T09:43:53;20.60;98.60
19728;DHT22;10015;52.530;13.390;2022-07-15T09:46:22;20.40;98.20
19728;DHT22;10015;52.530;13.390;2022-07-15T09:48:50;20.50;98.50
19728;DHT22;10015;52.530;13.390;2022-07-15T09:51:17;20.50;98.80
19728;DHT22;10015;52.530;13.390;2022-07-15T09:53:43;20.70;99.60
19728;DHT22;10015;52.530;13.390;2022-07-15T09:56:12;20.90;99.00
19728;DHT22;10015;52.530;13.390;2022-07-15T09:58:40;21.10;98.50
19728;DHT22;10015;52.530;13.390;2022-07-15T10:01:08;21.00;98.50
19728;DHT22;10015;52.530;13.390;2022-07-15T10:03:35;21.20;98.10
19728;DHT22;10015;52.530;13.390;2022-07-15T10:06:02;21.10;97.70
19728;DHT22;10015;52.530;13.390;2022-07-15T10:08:33;21.30;98.10
19728;DHT22;10015;52.530;13.390;2022-07-15T10:10:59;21.50;98.10
19728;DHT22;10015;52.530;13.390;2022-07-15T10:16:23;21.90;96.90
19728;DHT22;10015;52.530;13.390;2022-07-15T10:24:47;21.60;97.10
19728;DHT22;10015;52.530;13.390;2022-07-15T10:27:33;21.60;97.20
19728;DHT22;10015;52.530;13.390;2022-07-15T10:30:04;21.70;97.20
19728;DHT22;10015;52.530;13.390;2022-07-15T10:35:44;21.90;97.10
19728;DHT22;10015;52.530;13.390;2022-07-15T10:38:21;21.70;96.70
19728;DHT22;10015;52.530;13.390;2022-07-15T10:40:58;21.60;97.10
19728;DHT22;10015;52.530;13.390;2022-07-15T10:43:49;21.60;97.30
19728;DHT22;10015;52.530;13.390;2022-07-15T10:48:42;21.30;96.60
19728;DHT22;10015;52.530;13.390;2022-07-15T10:51:08;21.10;97.10
19728;DHT22;10015;52.530;13.390;2022-07-15T10:53:43;21.00;96.80
19728;DHT22;10015;52.530;13.390;2022-07-15T10:56:29;20.90;96.90
19728;DHT22;10015;52.530;13.390;2022-07-15T10:59:08;20.90;96.80
19728;DHT22;10015;52.530;13.390;2022-07-15T11:01:35;20.80;96.70
19728;DHT22;10015;52.530;13.390;2022-07-15T11:04:22;20.90;97.00
19728;DHT22;10015;52.530;13.390;2022-07-15T11:09:49;21.40;96.30
19728;DHT22;10015;52.530;13.390;2022-07-15T11:12:18;21.60;96.80
19728;DHT22;10015;52.530;13.390;2022-07-15T11:14:55;21.70;96.80
19728;DHT22;10015;52.530;13.390;2022-07-15T11:20:20;21.80;96.00
19728;DHT22;10015;52.530;13.390;2022-07-15T11:22:52;21.90;96.50
19728;DHT22;10015;52.530;13.390;2022-07-15T11:25:31;22.10;95.60
19728;DHT22;10015;52.530;13.390;2022-07-15T11:28:14;22.10;95.10
19728;DHT22;10015;52.530;13.390;2022-07-15T11:30:46;22.00;95.50
19728;DHT22;10015;52.530;13.390;2022-07-15T11:33:16;22.00;95.60
19728;DHT22;10015;52.530;13.390;2022-07-15T11:38:13;21.90;95.80
19728;DHT22;10015;52.530;13.390;2022-07-15T11:40:48;22.00;95.80
19728;DHT22;10015;52.530;13.390;2022-07-15T11:43:33;22.00;95.40
19728;DHT22;10015;52.530;13.390;2022-07-15T11:46:18;21.90;95.50
19728;DHT22;10015;52.530;13.390;2022-07-15T11:48:44;21.70;95.80
19728;DHT22;10015;52.530;13.390;2022-07-15T11:51:11;21.70;96.20
19728;DHT22;10015;52.530;13.390;2022-07-15T11:53:43;21.60;96.30
19728;DHT22;10015;52.530;13.390;2022-07-15T11:56:11;21.50;95.50
19728;DHT22;10015;52.530;13.390;2022-07-15T11:58:40;21.50;96.30
19728;DHT22;10015;52.530;13.390;2022-07-15T12:01:10;21.50;95.70
19728;DHT22;10015;52.530;13.390;2022-07-15T12:03:44;21.50;96.20
19728;DHT22;10015;52.530;13.390;2022-07-15T12:06:16;21.50;96.50
19728;DHT22;10015;52.530;13.390;2022-07-15T12:08:54;21.50;96.80
19728;DHT22;10015;52.530;13.390;2022-07-15T12:14:01;21.70;96.20
19728;DHT22;10015;52.530;13.390;2022-07-15T12:18:57;21.70;96.20
19728;DHT22;10015;52.530;13.390;2022-07-15T12:21:24;21.90;96.30
19728;DHT22;10015;52.530;13.390;2022-07-15T12:24:16;22.00;95.00
19728;DHT22;10015;52.530;13.390;2022-07-15T12:29:29;21.90;95.60
19728;DHT22;10015;52.530;13.390;2022-07-15T12:32:00;21.80;94.50
19728;DHT22;10015;52.530;13.390;2022-07-15T12:34:53;21.70;94.30
19728;DHT22;10015;52.530;13.390;2022-07-15T12:40:03;21.70;94.30
19728;DHT22;10015;52.530;13.390;2022-07-15T12:45:14;21.60;95.20
19728;DHT22;10015;52.530;13.390;2022-07-15T12:48:13;21.60;95.10
19728;DHT22;10015;52.530;13.390;2022-07-15T12:53:12;21.60;95.30
19728;DHT22;10015;52.530;13.390;2022-07-15T12:55:43;21.60;95.20
19728;DHT22;10015;52.530;13.390;2022-07-15T12:58:15;21.60;95.20
19728;DHT22;10015;52.530;13.390;2022-07-15T13:00:43;21.50;95.20
19728;DHT22;10015;52.530;13.390;2022-07-15T13:03:17;21.60;95.60
19728;DHT22;10015;52.530;13.390;2022-07-15T13:05:54;21.60;95.30
19728;DHT22;10015;52.530;13.390;2022-07-15T13:08:30;21.50;95.40
19728;DHT22;10015;52.530;13.390;2022-07-15T13:11:00;21.60;95.10
19728;DHT22;10015;52.530;13.390;2022-07-15T13:13:29;21.60;95.40
19728;DHT22;10015;52.530;13.390;2022-07-15T13:15:55;21.60;95.30
19728;DHT22;10015;52.530;13.390;2022-07-15T13:18:21;21.50;95.30
19728;DHT22;10015;52.530;13.390;2022-07-15T13:20:48;21.50;95.20
19728;DHT22;10015;52.530;13.390;2022-07-15T13:23:14;21.50;95.70
19728;DHT22;10015;52.530;13.390;2022-07-15T13:25:40;21.50;95.30
19728;DHT22;10015;52.530;13.390;2022-07-15T13:28:11;21.50;95.70
19728;DHT22;10015;52.530;13.390;2022-07-15T13:30:38;21.40;95.40
19728;DHT22;10015;52.530;13.390;2022-07-15T13:33:04;21.40;95.00
19728;DHT22;10015;52.530;13.390;2022-07-15T13:35:30;21.50;95.50
19728;DHT22;10015;52.530;13.390;2022-07-15T13:37:56;21.70;95.20
19728;DHT22;10015;52.530;13.390;2022-07-15T13:40:22;21.80;94.90
19728;DHT22;10015;52.530;13.390;2022-07-15T13:42:49;21.60;94.80
19728;DHT22;10015;52.530;13.390;2022-07-15T13:45:15;21.70;95.40
19728;DHT22;10015;52.530;13.390;2022-07-15T13:47:41;21.80;95.50
19728;DHT22;10015;52.530;13.390;2022-07-15T13:50:08;22.00;95.40
19728;DHT22;10015;52.530;13.390;2022-07-15T13:52:54;21.90;94.40
19728;DHT22;10015;52.530;13.390;2022-07-15T13:55:22;21.90;94.60
19728;DHT22;10015;52.530;13.390;2022-07-15T13:57:49;21.90;95.00
19728;DHT22;10015;52.530;13.390;2022-07-15T14:00:18;21.90;95.40
19728;DHT22;10015;52.530;13.390;2022-07-15T14:02:44;21.80;95.20
19728;DHT22;10015;52.530;13.390;2022-07-15T14:05:12;21.60;95.80
19728;DHT22;10015;52.530;13.390;2022-07-15T14:07:38;21.40;95.40
19728;DHT22;10015;52.530;13.390;2022-07-15T14:10:05;21.40;95.50
19728;DHT22;10015;52.530;13.390;2022-07-15T14:12:32;21.30;95.80
19728;DHT22;10015;52.530;13.390;2022-07-15T14:14:58;21.30;95.80
19728;DHT22;10015;52.530;13.390;2022-07-15T14:17:24;21.40;96.80
19728;DHT22;10015;52.530;13.390;2022-07-15T14:19:50;21.60;96.20
19728;DHT22;10015;52.530;13.390;2022-07-15T14:22:16;21.80;96.10
19728;DHT22;10015;52.530;13.390;2022-07-15T14:24:42;21.80;96.00
19728;DHT22;10015;52.530;13.390;2022-07-15T14:27:09;21.90;95.90
19728;DHT22;10015;52.530;13.390;2022-07-15T14:29:35;21.90;95.90
19728;DHT22;10015;52.530;13.390;2022-07-15T14:32:01;21.90;96.10
19728;DHT22;10015;52.530;13.390;2022-07-15T14:34:27;21.90;95.90
19728;DHT22;10015;52.530;13.390;2022-07-15T14:36:54;22.00;95.80
19728;DHT22;10015;52.530;13.390;2022-07-15T14:39:19;22.20;95.70
19728;DHT22;10015;52.530;13.390;2022-07-15T14:41:45;22.30;94.40
19728;DHT22;10015;52.530;13.390;2022-07-15T14:44:11;22.20;95.00
19728;DHT22;10015;52.530;13.390;2022-07-15T14:46:37;22.30;94.80
19728;DHT22;10015;52.530;13.390;2022-07-15T14:49:03;22.40;94.40
19728;DHT22;10015;52.530;13.390;2022-07-15T14:51:29;22.30;93.20
19728;DHT22;10015;52.530;13.390;2022-07-15T14:53:55;22.40;94.20
19728;DHT22;10015;52.530;13.390;2022-07-15T14:56:21;22.40;93.10
19728;DHT22;10015;52.530;13.390;2022-07-15T14:58:47;22.50;93.80
19728;DHT22;10015;52.530;13.390;2022-07-15T15:01:12;22.50;93.80
19728;DHT22;10015;52.530;13.390;2022-07-15T15:03:39;22.50;93.50
19728;DHT22;10015;52.530;13.390;2022-07-15T15:06:05;22.40;94.00
19728;DHT22;10015;52.530;13.390;2022-07-15T15:08:31;22.20;94.00
19728;DHT22;10015;52.530;13.390;2022-07-15T15:10:57;22.00;94.00
19728;DHT22;10015;52.530;13.390;2022-07-15T15:13:23;21.90;94.70
19728;DHT22;10015;52.530;13.390;2022-07-15T15:15:49;21.90;94.40
19728;DHT22;10015;52.530;13.390;2022-07-15T15:18:15;21.90;94.90
19728;DHT22;10015;52.530;13.390;2022-07-15T15:20:40;21.80;94.80
19728;DHT22;10015;52.530;13.390;2022-07-15T15:23:06;21.90;94.80
19728;DHT22;10015;52.530;13.390;2022-07-15T15:25:32;21.90;95.00
19728;DHT22;10015;52.530;13.390;2022-07-15T15:28:17;21.90;95.10
19728;DHT22;10015;52.530;13.390;2022-07-15T15:30:43;21.90;95.10
19728;DHT22;10015;52.530;13.390;2022-07-15T15:33:09;21.90;95.00
19728;DHT22;10015;52.530;13.390;2022-07-15T15:35:34;21.90;95.10
19728;DHT22;10015;52.530;13.390;2022-07-15T15:38:00;21.90;94.80
19728;DHT22;10015;52.530;13.390;2022-07-15T15:40:26;21.80;94.90
19728;DHT22;10015;52.530;13.390;2022-07-15T15:42:52;21.70;95.10
19728;DHT22;10015;52.530;13.390;2022-07-15T15:45:18;21.60;95.10
19728;DHT22;10015;52.530;13.390;2022-07-15T15:47:44;21.50;95.30
19728;DHT22;10015;52.530;13.390;2022-07-15T15:50:10;21.50;95.80
19728;DHT22;10015;52.530;13.390;2022-07-15T15:52:36;21.70;95.50
19728;DHT22;10015;52.530;13.390;2022-07-15T15:55:03;21.90;95.00
19728;DHT22;10015;52.530;13.390;2022-07-15T15:57:29;22.10;94.60
19728;DHT22;10015;52.530;13.390;2022-07-15T15:59:55;22.10;94.00
19728;DHT22;10015;52.530;13.390;2022-07-15T16:02:21;22.00;94.00
19728;DHT22;10015;52.530;13.390;2022-07-15T16:04:47;21.90;94.10
19728;DHT22;10015;52.530;13.390;2022-07-15T16:07:13;21.90;94.60
19728;DHT22;10015;52.530;13.390;2022-07-15T16:09:39;22.10;94.50
19728;DHT22;10015;52.530;13.390;2022-07-15T16:12:05;22.10;94.70
19728;DHT22;10015;52.530;13.390;2022-07-15T16:14:31;22.10;94.80
19728;DHT22;10015;52.530;13.390;2022-07-15T16:16:57;22.10;94.90
19728;DHT22;10015;52.530;13.390;2022-07-15T16:19:23;22.00;93.90
19728;DHT22;10015;52.530;13.390;2022-07-15T16:21:49;22.10;94.50
19728;DHT22;10015;52.530;13.390;2022-07-15T16:24:34;22.10;94.90
19728;DHT22;10015;52.530;13.390;2022-07-15T16:27:00;22.20;94.40
19728;DHT22;10015;52.530;13.390;2022-07-15T16:29:26;22.20;94.80
19728;DHT22;10015;52.530;13.390;2022-07-15T16:31:53;22.10;94.40
19728;DHT22;10015;52.530;13.390;2022-07-15T16:34:19;22.10;94.10
19728;DHT22;10015;52.530;13.390;2022-07-15T16:36:45;22.20;94.00
19728;DHT22;10015;52.530;13.390;2022-07-15T16:39:11;22.40;93.90
19728;DHT22;10015;52.530;13.390;2022-07-15T16:41:37;22.30;93.90
19728;DHT22;10015;52.530;13.390;2022-07-15T16:44:03;22.40;93.80
19728;DHT22;10015;52.530;13.390;2022-07-15T16:46:29;22.60;93.40
19728;DHT22;10015;52.530;13.390;2022-07-15T16:48:55;22.60;94.00
19728;DHT22;10015;52.530;13.390;2022-07-15T16:51:21;22.80;94.10
19728;DHT22;10015;52.530;13.390;2022-07-15T16:53:46;23.00;93.60
19728;DHT22;10015;52.530;13.390;2022-07-15T16:56:13;23.00;93.80
19728;DHT22;10015;52.530;13.390;2022-07-15T16:58:39;23.10;93.30
19728;DHT22;10015;52.530;13.390;2022-07-15T17:01:05;23.00;93.60
19728;DHT22;10015;52.530;13.390;2022-07-15T17:03:32;23.00;93.80
19728;DHT22;10015;52.530;13.390;2022-07-15T17:05:59;22.80;93.30
19728;DHT22;10015;52.530;13.390;2022-07-15T17:08:25;22.60;93.70
19728;DHT22;10015;52.530;13.390;2022-07-15T17:10:51;22.50;93.80
19728;DHT22;10015;52.530;13.390;2022-07-15T17:13:17;22.40;93.60
19728;DHT22;10015;52.530;13.390;2022-07-15T17:15:43;22.30;93.50
19728;DHT22;10015;52.530;13.390;2022-07-15T17:18:08;22.30;94.40
19728;DHT22;10015;52.530;13.390;2022-07-15T17:20:35;22.10;93.50
19728;DHT22;10015;52.530;13.390;2022-07-15T17:23:01;22.10;93.80
19728;DHT22;10015;52.530;13.390;2022-07-15T17:25:27;22.00;93.60
19728;DHT22;10015;52.530;13.390;2022-07-15T17:27:53;21.80;93.10
19728;DHT22;10015;52.530;13.390;2022-07-15T17:30:19;21.80;93.70
19728;DHT22;10015;52.530;13.390;2022-07-15T17:32:45;21.70;93.10
19728;DHT22;10015;52.530;13.390;2022-07-15T17:35:11;21.60;93.60
19728;DHT22;10015;52.530;13.390;2022-07-15T17:37:38;21.60;94.10
19728;DHT22;10015;52.530;13.390;2022-07-15T17:40:04;21.50;93.80
19728;DHT22;10015;52.530;13.390;2022-07-15T17:42:30;21.50;94.00
19728;DHT22;10015;52.530;13.390;2022-07-15T17:44:56;21.50;94.30
19728;DHT22;10015;52.530;13.390;2022-07-15T17:47:22;21.60;93.60
19728;DHT22;10015;52.530;13.390;2022-07-15T17:49:48;21.50;94.00
19728;DHT22;10015;52.530;13.390;2022-07-15T17:52:14;21.60;94.00
19728;DHT22;10015;52.530;13.390;2022-07-15T17:54:40;21.60;94.40
19728;DHT22;10015;52.530;13.390;2022-07-15T17:57:06;21.60;94.10
19728;DHT22;10015;52.530;13.390;2022-07-15T17:59:35;21.60;94.00
19728;DHT22;10015;52.530;13.390;2022-07-15T18:02:03;21.70;94.30
19728;DHT22;10015;52.530;13.390;2022-07-15T18:04:29;21.60;94.50
19728;DHT22;10015;52.530;13.390;2022-07-15T18:06:55;21.70;94.30
19728;DHT22;10015;52.530;13.390;2022-07-15T18:09:21;21.70;94.60
19728;DHT22;10015;52.530;13.390;2022-07-15T18:11:48;21.70;94.60
19728;DHT22;10015;52.530;13.390;2022-07-15T18:14:14;21.70;94.70
19728;DHT22;10015;52.530;13.390;2022-07-15T18:16:41;21.70;94.40
19728;DHT22;10015;52.530;13.390;2022-07-15T18:19:07;21.70;94.60
19728;DHT22;10015;52.530;13.390;2022-07-15T18:21:40;21.70;94.60
19728;DHT22;10015;52.530;13.390;2022-07-15T18:24:07;21.60;94.40
19728;DHT22;10015;52.530;13.390;2022-07-15T18:26:33;21.60;94.60
19728;DHT22;10015;52.530;13.390;2022-07-15T18:28:59;21.50;94.50
19728;DHT22;10015;52.530;13.390;2022-07-15T18:31:25;21.50;94.60
19728;DHT22;10015;52.530;13.390;2022-07-15T18:33:51;21.40;94.20
19728;DHT22;10015;52.530;13.390;2022-07-15T18:36:17;21.30;94.50
19728;DHT22;10015;52.530;13.390;2022-07-15T18:38:43;21.30;94.90
19728;DHT22;10015;52.530;13.390;2022-07-15T18:41:09;21.20;95.20
19728;DHT22;10015;52.530;13.390;2022-07-15T18:43:38;21.20;95.40
19728;DHT22;10015;52.530;13.390;2022-07-15T18:46:07;21.20;94.80
19728;DHT22;10015;52.530;13.390;2022-07-15T18:48:33;21.20;95.10
19728;DHT22;10015;52.530;13.390;2022-07-15T18:50:59;21.30;95.20
19728;DHT22;10015;52.530;13.390;2022-07-15T18:53:25;21.30;95.10
19728;DHT22;10015;52.530;13.390;2022-07-15T18:55:51;21.20;95.10
19728;DHT22;10015;52.530;13.390;2022-07-15T18:58:17;21.20;95.30
19728;DHT22;10015;52.530;13.390;2022-07-15T19:00:42;21.20;95.40
19728;DHT22;10015;52.530;13.390;2022-07-15T19:03:08;21.20;95.30
19728;DHT22;10015;52.530;13.390;2022-07-15T19:05:34;21.10;95.70
19728;DHT22;10015;52.530;13.390;2022-07-15T19:08:00;21.10;96.00
19728;DHT22;10015;52.530;13.390;2022-07-15T19:10:26;21.10;95.70
19728;DHT22;10015;52.530;13.390;2022-07-15T19:12:53;21.00;96.00
19728;DHT22;10015;52.530;13.390;2022-07-15T19:15:19;21.00;96.20
19728;DHT22;10015;52.530;13.390;2022-07-15T19:17:46;21.00;96.00
19728;DHT22;10015;52.530;13.390;2022-07-15T19:20:12;20.90;96.20
19728;DHT22;10015;52.530;13.390;2022-07-15T19:22:39;20.90;96.40
19728;DHT22;10015;52.530;13.390;2022-07-15T19:25:05;20.90;96.40
19728;DHT22;10015;52.530;13.390;2022-07-15T19:27:31;21.00;96.50
19728;DHT22;10015;52.530;13.390;2022-07-15T19:29:57;21.00;96.40
19728;DHT22;10015;52.530;13.390;2022-07-15T19:32:23;20.90;96.50
19728;DHT22;10015;52.530;13.390;2022-07-15T19:34:49;20.90;96.70
19728;DHT22;10015;52.530;13.390;2022-07-15T19:37:15;20.90;96.90
19728;DHT22;10015;52.530;13.390;2022-07-15T19:39:42;20.90;96.80
19728;DHT22;10015;52.530;13.390;2022-07-15T19:42:08;20.90;96.80
19728;DHT22;10015;52.530;13.390;2022-07-15T19:44:34;20.90;96.70
19728;DHT22;10015;52.530;13.390;2022-07-15T19:47:00;20.90;96.80
19728;DHT22;10015;52.530;13.390;2022-07-15T19:49:26;20.90;96.90
19728;DHT22;10015;52.530;13.390;2022-07-15T19:51:52;20.90;96.90
19728;DHT22;10015;52.530;13.390;2022-07-15T19:54:19;20.90;96.90
19728;DHT22;10015;52.530;13.390;2022-07-15T19:56:45;20.90;97.00
19728;DHT22;10015;52.530;13.390;2022-07-15T19:59:12;20.80;97.10
19728;DHT22;10015;52.530;13.390;2022-07-15T20:01:56;20.80;97.10
19728;DHT22;10015;52.530;13.390;2022-07-15T20:04:22;20.80;97.20
19728;DHT22;10015;52.530;13.390;2022-07-15T20:06:49;20.90;97.10
19728;DHT22;10015;52.530;13.390;2022-07-15T20:09:15;20.90;97.10
19728;DHT22;10015;52.530;13.390;2022-07-15T20:11:41;20.90;96.90
19728;DHT22;10015;52.530;13.390;2022-07-15T20:14:07;20.80;97.30
19728;DHT22;10015;52.530;13.390;2022-07-15T20:16:34;20.70;97.60
19728;DHT22;10015;52.530;13.390;2022-07-15T20:19:00;20.70;97.40
19728;DHT22;10015;52.530;13.390;2022-07-15T20:21:28;20.80;97.40
19728;DHT22;10015;52.530;13.390;2022-07-15T20:23:54;20.70;97.40
19728;DHT22;10015;52.530;13.390;2022-07-15T20:26:21;20.70;97.60
19728;DHT22;10015;52.530;13.390;2022-07-15T20:28:47;20.70;97.50